»·PEaware :: N2102W KFUL-KEMT

N2102W :: KFUL-KEMT

FLIGHT INFORMATION

Flight Status: Arrived
Operator: Privately registered:
United States
More flights under this callsign
Pilot: Eric G. (5941)
Aircraft: BEECH AIRCRAFT BARON
(BE55)
More flights by this aircraft type
Origin: KFUL Fullerton Mun
United States
Destination: KEMT El Monte
United States
More flights between these airports :: More routes between these airports
Route: NA
File this flight plan on PilotEdge
Remarks: NA
Altitude:
(Current/Filed)
3,500ft
Speed:
(Current/Filed)
175kts
Departed: 02-Sep-20 06:42 PM
Arrived: 02-Sep-20 07:17 PM
Distance/Time
Traveled:
13nm/0:34
Distance/Time
To Go:
Arrived

Flight Plot

Page will automatically refresh every two minutes.

Flight plan parsing failed; only flown route is shown


Map Options




Map Legend


Flown Route
Filed Route
Departure Airport
Arrival Airport
Navaid (VOR, NDB)
Fix

Horizontal Profiles

Position Reports

Time Latitude Longitude Heading Altitude Ground
Speed
02-Sep-20 18:13 33.872456 -117.982911 356 87ft 0kts
02-Sep-20 18:14 33.872456 -117.982911 356 87ft 0kts
02-Sep-20 18:15 33.872456 -117.982911 356 87ft 0kts
02-Sep-20 18:16 33.872456 -117.982911 356 87ft 0kts
02-Sep-20 18:17 33.872456 -117.982911 356 87ft 0kts
02-Sep-20 18:18 33.872456 -117.982911 356 87ft 0kts
02-Sep-20 18:19 33.872456 -117.982911 356 87ft 0kts
02-Sep-20 18:20 33.872454 -117.982708 157 87ft 1kts
02-Sep-20 18:21 33.872446 -117.982704 157 87ft 0kts
02-Sep-20 18:22 33.872449 -117.981535 77 89ft 0kts
02-Sep-20 18:23 33.872449 -117.981535 77 89ft 0kts
02-Sep-20 18:24 33.872449 -117.981535 77 89ft 0kts
02-Sep-20 18:25 33.872449 -117.981535 77 89ft 0kts
02-Sep-20 18:26 33.872449 -117.981535 77 89ft 0kts
02-Sep-20 18:27 33.872449 -117.981535 77 89ft 0kts
02-Sep-20 18:28 33.872449 -117.981535 77 89ft 0kts
02-Sep-20 18:29 33.872449 -117.981535 77 89ft 0kts
02-Sep-20 18:30 33.872449 -117.981535 77 89ft 0kts
02-Sep-20 18:31 33.872449 -117.981535 77 89ft 0kts
02-Sep-20 18:32 33.872449 -117.981535 77 89ft 0kts
02-Sep-20 18:33 33.872449 -117.981535 77 89ft 0kts
02-Sep-20 18:34 33.872449 -117.981535 77 89ft 0kts
02-Sep-20 18:35 33.872449 -117.981535 77 89ft 0kts
02-Sep-20 18:36 33.872465 -117.979749 77 93ft 18kts
02-Sep-20 18:37 33.873217 -117.975878 87 99ft 0kts
02-Sep-20 18:38 33.873217 -117.975878 87 99ft 0kts
02-Sep-20 18:39 33.873217 -117.975878 87 99ft 0kts
02-Sep-20 18:40 33.872901 -117.975145 255 102ft 3kts
02-Sep-20 18:41 33.869061 -117.994769 262 615ft 122kts
02-Sep-20 18:42 33.895675 -118.020171 356 1813ft 177kts
02-Sep-20 18:43 33.942152 -118.006958 24 2637ft 185kts
02-Sep-20 18:44 33.983600 -117.971494 52 2481ft 193kts
02-Sep-20 18:45 34.014716 -117.920791 52 2334ft 190kts
02-Sep-20 18:46 34.046268 -117.893779 357 2662ft 177kts
02-Sep-20 18:47 34.069566 -117.896286 353 2926ft 176kts
02-Sep-20 18:48 34.097065 -117.899641 353 3214ft 176kts
02-Sep-20 18:49 34.144207 -117.905156 356 3899ft 166kts
02-Sep-20 18:50 34.187787 -117.910638 307 4890ft 149kts
02-Sep-20 18:51 34.189618 -117.963874 260 5309ft 169kts
02-Sep-20 18:52 34.186884 -118.023030 270 4923ft 182kts
02-Sep-20 18:53 34.194490 -118.079738 288 5392ft 167kts
02-Sep-20 18:54 34.211578 -118.133271 292 5462ft 184kts
02-Sep-20 18:55 34.232835 -118.183244 301 5365ft 179kts
02-Sep-20 18:56 34.260105 -118.230472 316 5665ft 175kts
02-Sep-20 18:57 34.274017 -118.243739 322 5732ft 175kts
02-Sep-20 18:58 34.313736 -118.277453 318 5904ft 176kts
02-Sep-20 18:59 34.351523 -118.314143 321 6083ft 176kts
02-Sep-20 19:00 34.382114 -118.340977 332 6122ft 178kts
02-Sep-20 19:01 34.408741 -118.355530 332 6210ft 178kts
02-Sep-20 19:02 34.425205 -118.371782 311 6202ft 177kts
02-Sep-20 19:03 34.424273 -118.422782 212 5985ft 176kts
02-Sep-20 19:04 34.377705 -118.419608 158 5907ft 172kts
02-Sep-20 19:05 34.337812 -118.399824 142 4499ft 154kts
02-Sep-20 19:06 34.310672 -118.365493 118 3945ft 134kts
02-Sep-20 19:07 34.304382 -118.322392 139 4229ft 150kts
02-Sep-20 19:08 34.270019 -118.285887 130 4626ft 174kts
02-Sep-20 19:09 34.239451 -118.238221 132 4260ft 203kts
02-Sep-20 19:10 34.206627 -118.189215 131 3977ft 190kts
02-Sep-20 19:11 34.180909 -118.146639 128 3420ft 184kts
02-Sep-20 19:12 34.156353 -118.109315 120 2271ft 148kts
02-Sep-20 19:13 34.139825 -118.070859 115 1589ft 120kts
02-Sep-20 19:14 34.125115 -118.035290 122 1309ft 101kts
02-Sep-20 19:15 34.102938 -118.024607 207 754ft 95kts
02-Sep-20 19:16 34.085922 -118.034931 218 294ft 0kts

Navigation Log

Ident Type
Flight plan parsing failed, navigation log unavailable